Weather at Wicker & Wings Aerodrome

Public forecast

Using degrees Fahrenheit for public forecast. Weather courtesy of forecast.io.

Closest aviation weather report (METAR) to Wicker & Wings Aerodrome

Closest report is Quakertown Airport, 2.0 nm (3.7 km) NNW. Retrieved 2020/09/27 03:35 UTC (0 seconds ago):

KUKT 270335Z AUTO 00000KT 10SM OVC007 20/20 A3003 RMK A01

Closest aviation forecast (TAF) to Wicker & Wings Aerodrome

Closest forecast is Lehigh Valley International Airport, 15.3 nm (28.3 km) NNW. Retrieved 2020-09-27 00:24 UTC (3 hours ago):

TAF KABE 262323Z 2700/2724 VRB02KT P6SM SCT020 BKN035 FM270100 VRB02KT P6SM BKN020 FM270300 VRB02KT 5SM -DZ BR OVC008 FM270600 VRB02KT 1SM -DZ BR OVC003 FM271400 12005KT 5SM -DZ BR OVC008 FM271600 16005KT P6SM OVC015 FM271800 16007KT P6SM OVC025